createdAt,value
2018-08-24T00:00:25.357Z,98985.97
2018-08-24T00:02:54.442Z,98983.00
2018-08-24T00:05:23.801Z,98983.66
2018-08-24T00:07:52.853Z,98986.41
2018-08-24T00:10:21.809Z,98990.07
2018-08-24T00:12:50.809Z,98985.11
2018-08-24T00:15:19.707Z,98980.48
2018-08-24T00:17:49.151Z,98984.52
2018-08-24T00:20:18.417Z,98988.36
2018-08-24T00:22:47.473Z,98983.77
2018-08-24T00:25:16.390Z,98987.45
2018-08-24T00:27:45.572Z,98987.23
2018-08-24T00:30:14.523Z,98990.16
2018-08-24T00:32:43.490Z,98993.92
2018-08-24T00:35:12.677Z,98980.09
2018-08-24T00:37:41.681Z,98991.06
2018-08-24T00:40:10.645Z,98984.84
2018-08-24T00:42:39.705Z,98990.48
2018-08-24T00:45:08.615Z,98991.86
2018-08-24T00:47:37.533Z,98987.57
2018-08-24T00:50:06.617Z,98983.25
2018-08-24T00:52:35.500Z,98981.31
2018-08-24T00:55:04.510Z,98982.00
2018-08-24T00:57:33.814Z,98982.30
2018-08-24T01:00:02.861Z,98981.31
2018-08-24T01:02:31.718Z,98981.59
2018-08-24T01:05:00.733Z,98979.08
2018-08-24T01:07:29.822Z,98988.05
2018-08-24T01:10:03.291Z,98979.75
2018-08-24T01:12:32.337Z,98973.47
2018-08-24T01:15:05.421Z,98980.02
2018-08-24T01:17:39.486Z,98978.04
2018-08-24T01:20:08.836Z,98973.48
2018-08-24T01:22:37.737Z,98978.80
2018-08-24T01:25:07.264Z,98977.99
2018-08-24T01:27:37.329Z,98974.52
2018-08-24T01:30:06.415Z,98977.14
2018-08-24T01:32:35.370Z,98976.55
2018-08-24T01:35:04.325Z,98971.19
2018-08-24T01:37:33.292Z,98973.91
2018-08-24T01:40:02.208Z,98969.80
2018-08-24T01:42:31.482Z,98962.13
2018-08-24T01:45:00.374Z,98954.72
2018-08-24T01:47:29.235Z,98957.96
2018-08-24T01:49:58.204Z,98961.14
2018-08-24T01:52:27.194Z,98951.84
2018-08-24T01:54:56.149Z,98954.03
2018-08-24T01:57:25.500Z,98956.75
2018-08-24T01:59:54.367Z,98959.09
2018-08-24T02:02:23.327Z,98955.56
2018-08-24T02:04:53.614Z,98941.41
2018-08-24T02:07:22.539Z,98946.16
2018-08-24T02:09:51.462Z,98950.80
2018-08-24T02:12:25.613Z,98946.75
2018-08-24T02:14:54.632Z,98942.59
2018-08-24T02:17:28.924Z,98938.64
2018-08-24T02:20:02.929Z,98945.00
2018-08-24T02:22:32.659Z,98941.36
2018-08-24T02:25:01.611Z,98920.72
2018-08-24T02:27:30.517Z,98936.04
2018-08-24T02:29:59.730Z,98942.14
2018-08-24T02:32:28.643Z,98942.99
2018-08-24T02:35:00.716Z,98941.87
2018-08-24T02:37:30.662Z,98938.15
2018-08-24T02:39:59.570Z,98942.66
2018-08-24T02:42:28.835Z,98932.73
2018-08-24T02:44:57.812Z,98940.77
2018-08-24T02:47:26.720Z,98942.05
2018-08-24T02:49:55.871Z,98937.00
2018-08-24T02:52:24.740Z,98928.17
2018-08-24T02:54:53.693Z,98925.27
2018-08-24T02:57:23.023Z,98931.16
2018-08-24T02:59:51.940Z,98925.27
2018-08-24T03:02:20.995Z,98924.55
2018-08-24T03:04:50.325Z,98924.36
2018-08-24T03:07:19.237Z,98926.22
2018-08-24T03:09:48.141Z,98927.09
2018-08-24T03:12:17.681Z,98916.63
2018-08-24T03:14:46.677Z,98921.33
2018-08-24T03:17:20.878Z,98921.45
2018-08-24T03:19:49.836Z,98927.70
2018-08-24T03:22:18.738Z,98932.14
2018-08-24T03:24:48.233Z,98926.61
2018-08-24T03:27:17.167Z,98924.84
2018-08-24T03:29:46.053Z,98934.96
2018-08-24T03:32:15.298Z,98933.91
2018-08-24T03:34:44.184Z,98927.12
2018-08-24T03:37:13.112Z,98924.73
2018-08-24T03:39:42.059Z,98919.23
2018-08-24T03:42:11.715Z,98924.29
2018-08-24T03:44:40.672Z,98931.56
2018-08-24T03:47:09.621Z,98928.06
2018-08-24T03:49:38.546Z,98923.66
2018-08-24T03:52:07.466Z,98931.27
2018-08-24T03:54:36.702Z,98922.60
2018-08-24T03:57:05.676Z,98929.31
2018-08-24T03:59:34.590Z,98924.79
2018-08-24T04:02:03.942Z,98931.20
2018-08-24T04:04:32.901Z,98926.13
2018-08-24T04:07:01.843Z,98927.25
2018-08-24T04:09:30.792Z,98924.77
2018-08-24T04:11:59.647Z,98922.38
2018-08-24T04:14:28.640Z,98927.42
2018-08-24T04:17:02.664Z,98931.48
2018-08-24T04:19:31.653Z,98933.53
2018-08-24T04:22:00.927Z,98929.86
2018-08-24T04:24:29.794Z,98932.68
2018-08-24T04:26:58.737Z,98926.53
2018-08-24T04:29:27.660Z,98930.42
2018-08-24T04:31:56.638Z,98933.77
2018-08-24T04:34:25.625Z,98936.26
2018-08-24T04:36:54.547Z,98932.48
2018-08-24T04:39:23.494Z,98927.83
2018-08-24T04:41:52.394Z,98927.64
2018-08-24T04:44:21.306Z,98928.58
2018-08-24T04:46:50.569Z,98923.46
2018-08-24T04:49:19.409Z,98922.60
2018-08-24T04:51:48.271Z,98926.56
2018-08-24T04:54:17.242Z,98917.80
2018-08-24T04:56:46.218Z,98929.19
2018-08-24T04:59:15.122Z,98922.44
2018-08-24T05:01:44.448Z,98925.34
2018-08-24T05:04:13.377Z,98919.77
2018-08-24T05:06:42.212Z,98925.71
2018-08-24T05:09:11.592Z,98925.00
2018-08-24T05:11:41.060Z,98927.91
2018-08-24T05:14:10.702Z,98926.36
2018-08-24T05:16:39.962Z,98923.27
2018-08-24T05:19:08.817Z,98923.53
2018-08-24T05:21:37.697Z,98913.81
2018-08-24T05:24:06.671Z,98922.50
2018-08-24T05:26:35.652Z,98920.72
2018-08-24T05:29:04.626Z,98919.93
2018-08-24T05:31:33.973Z,98920.84
2018-08-24T05:34:02.937Z,98920.42
2018-08-24T05:36:31.811Z,98921.02
2018-08-24T05:39:00.848Z,98911.00
2018-08-24T05:41:30.045Z,98917.19
2018-08-24T05:43:59.305Z,98919.87
2018-08-24T05:46:28.531Z,98924.39
2018-08-24T05:48:57.514Z,98916.72
2018-08-24T05:51:26.263Z,98920.65
2018-08-24T05:53:55.416Z,98918.59
2018-08-24T05:56:24.178Z,98919.66
2018-08-24T05:58:52.927Z,98924.36
2018-08-24T06:01:21.777Z,98919.75
2018-08-24T06:03:50.545Z,98914.80
2018-08-24T06:06:19.302Z,98915.78
2018-08-24T06:08:52.448Z,98917.51
2018-08-24T06:11:21.223Z,98914.66
2018-08-24T06:13:49.983Z,98910.41
2018-08-24T06:16:18.764Z,98907.38
2018-08-24T06:18:47.584Z,98900.23
2018-08-24T06:21:16.364Z,98895.33
2018-08-24T06:23:45.465Z,98906.64
2018-08-24T06:26:14.884Z,98903.70
2018-08-24T06:28:43.649Z,98908.06
2018-08-24T06:31:12.457Z,98896.80
2018-08-24T06:33:41.235Z,98901.08
2018-08-24T06:36:10.031Z,98903.67
2018-08-24T06:38:39.133Z,98903.15
2018-08-24T06:41:07.936Z,98902.07
2018-08-24T06:43:36.716Z,98901.91
2018-08-24T06:46:05.566Z,98903.28
2018-08-24T06:48:34.386Z,98899.17
2018-08-24T06:51:03.155Z,98901.94
2018-08-24T06:53:32.321Z,98904.98
2018-08-24T06:56:01.076Z,98898.69
2018-08-24T06:58:29.831Z,98900.61
2018-08-24T07:00:58.607Z,98894.80
2018-08-24T07:03:27.387Z,98902.20
2018-08-24T07:05:56.301Z,98898.13
2018-08-24T07:08:25.383Z,98894.54
2018-08-24T07:10:54.121Z,98897.30
2018-08-24T07:13:22.968Z,98892.09
2018-08-24T07:15:51.734Z,98898.92
2018-08-24T07:18:20.511Z,98898.91
2018-08-24T07:20:49.273Z,98893.09
2018-08-24T07:23:18.106Z,98890.36
2018-08-24T07:25:46.886Z,98894.44
2018-08-24T07:28:15.674Z,98894.98
2018-08-24T07:30:44.408Z,98893.64
2018-08-24T07:33:13.172Z,98893.08
2018-08-24T07:35:41.906Z,98895.00
2018-08-24T07:38:10.689Z,98889.97
2018-08-24T07:40:39.466Z,98889.45
2018-08-24T07:43:08.262Z,98894.95
2018-08-24T07:45:37.521Z,98886.53
2018-08-24T07:48:06.295Z,98887.13
2018-08-24T07:50:35.090Z,98884.06
2018-08-24T07:53:03.944Z,98881.37
2018-08-24T07:55:32.699Z,98875.77
2018-08-24T07:58:01.485Z,98872.54
2018-08-24T08:00:30.602Z,98865.95
2018-08-24T08:02:59.441Z,98865.70
2018-08-24T08:05:28.254Z,98865.23
2018-08-24T08:07:57.361Z,98858.10
2018-08-24T08:10:30.184Z,98862.34
2018-08-24T08:12:59.146Z,98852.27
2018-08-24T08:15:27.924Z,98864.50
2018-08-24T08:17:56.737Z,98852.13
2018-08-24T08:20:25.602Z,98860.45
2018-08-24T08:22:54.399Z,98853.39
2018-08-24T08:25:23.268Z,98849.22
2018-08-24T08:27:52.435Z,98846.34
2018-08-24T08:30:21.294Z,98838.86
2018-08-24T08:32:50.097Z,98831.80
2018-08-24T08:35:19.272Z,98832.76
2018-08-24T08:37:48.040Z,98831.45
2018-08-24T08:40:16.780Z,98831.37
2018-08-24T08:42:45.584Z,98831.21
2018-08-24T08:45:14.433Z,98822.64
2018-08-24T08:47:43.198Z,98821.78
2018-08-24T08:50:12.355Z,98815.73
2018-08-24T08:52:41.122Z,98812.11
2018-08-24T08:55:10.190Z,98809.44
2018-08-24T08:57:39.349Z,98809.86
2018-08-24T09:00:08.253Z,98807.73
2018-08-24T09:02:37.113Z,98807.61
2018-08-24T09:05:06.479Z,98814.28
2018-08-24T09:07:35.284Z,98807.74
2018-08-24T09:10:04.430Z,98808.93
2018-08-24T09:12:33.545Z,98801.73
2018-08-24T09:15:02.359Z,98810.56
2018-08-24T09:17:36.672Z,98807.95
2018-08-24T09:20:10.707Z,98801.71
2018-08-24T09:22:45.302Z,98796.44
2018-08-24T09:25:19.372Z,98802.78
2018-08-24T09:27:52.651Z,98789.73
2018-08-24T09:30:22.716Z,98797.37
2018-08-24T09:32:51.547Z,98797.68
2018-08-24T09:35:21.042Z,98796.89
2018-08-24T09:37:49.948Z,98794.61
2018-08-24T09:40:19.137Z,98793.39
2018-08-24T09:42:48.000Z,98798.31
2018-08-24T09:45:16.810Z,98779.84
2018-08-24T09:48:48.575Z,98782.31
2018-08-24T09:51:22.481Z,98772.72
2018-08-24T09:53:57.289Z,98775.48
2018-08-24T09:56:27.329Z,98775.03
2018-08-24T09:58:56.261Z,98771.25
2018-08-24T10:01:30.419Z,98763.67
2018-08-24T10:04:04.404Z,98754.70
2018-08-24T10:06:38.424Z,98754.45
2018-08-24T10:09:10.925Z,98755.36
2018-08-24T10:11:40.096Z,98748.27
2018-08-24T10:14:09.307Z,98743.16
2018-08-24T10:16:38.498Z,98749.47
2018-08-24T10:19:10.623Z,98750.05
2018-08-24T10:21:39.571Z,98744.25
2018-08-24T10:24:13.624Z,98740.45
2018-08-24T10:26:42.457Z,98742.31
2018-08-24T10:29:11.310Z,98736.91
2018-08-24T10:31:40.489Z,98732.30
2018-08-24T10:34:09.309Z,98732.91
2018-08-24T10:36:38.891Z,98726.11
2018-08-24T10:39:09.821Z,98721.61
2018-08-24T10:41:38.578Z,98714.64
2018-08-24T10:44:07.568Z,98715.67
2018-08-24T10:46:36.712Z,98718.67
2018-08-24T10:49:05.631Z,98710.48
2018-08-24T10:51:34.435Z,98716.95
2018-08-24T10:54:03.353Z,98709.11
2018-08-24T10:56:32.170Z,98699.17
2018-08-24T10:59:00.961Z,98700.53
2018-08-24T11:01:30.082Z,98697.55
2018-08-24T11:03:58.895Z,98692.42
2018-08-24T11:06:27.781Z,98690.08
2018-08-24T11:08:56.971Z,98693.29
2018-08-24T11:11:26.089Z,98684.50
2018-08-24T11:13:54.861Z,98684.43
2018-08-24T11:16:23.666Z,98677.77
2018-08-24T11:18:52.489Z,98679.20
2018-08-24T11:21:21.303Z,98671.86
2018-08-24T11:23:50.470Z,98669.25
2018-08-24T11:26:19.280Z,98673.09
2018-08-24T11:28:48.174Z,98667.89
2018-08-24T11:31:17.015Z,98668.61
2018-08-24T11:33:45.793Z,98656.89
2018-08-24T11:36:15.441Z,98659.61
2018-08-24T11:38:44.312Z,98652.95
2018-08-24T11:41:13.150Z,98645.36
2018-08-24T11:43:42.055Z,98641.31
2018-08-24T11:46:10.928Z,98645.36
2018-08-24T11:48:39.774Z,98646.72
2018-08-24T11:51:08.610Z,98640.95
2018-08-24T11:53:37.480Z,98634.67
2018-08-24T11:56:06.918Z,98633.48
2018-08-24T11:58:35.752Z,98633.05
2018-08-24T12:01:04.662Z,98626.48
2018-08-24T12:03:33.505Z,98616.06
2018-08-24T12:06:02.326Z,98618.38
2018-08-24T12:08:31.411Z,98627.46
2018-08-24T12:11:00.250Z,98610.70
2018-08-24T12:13:29.169Z,98608.73
2018-08-24T12:15:57.994Z,98599.69
2018-08-24T12:18:26.944Z,98592.76
2018-08-24T12:20:55.695Z,98597.09
2018-08-24T12:23:24.834Z,98589.51
2018-08-24T12:25:53.721Z,98587.33
2018-08-24T12:28:22.553Z,98589.03
2018-08-24T12:30:51.484Z,98587.83
2018-08-24T12:33:20.270Z,98592.68
2018-08-24T12:35:49.138Z,98580.20
2018-08-24T12:38:18.324Z,98581.67
2018-08-24T12:40:47.187Z,98577.91
2018-08-24T12:43:17.065Z,98579.81
2018-08-24T12:45:45.958Z,98571.13
2018-08-24T12:48:14.802Z,98574.02
2018-08-24T12:50:43.686Z,98565.67
2018-08-24T12:53:12.557Z,98564.00
2018-08-24T12:55:41.416Z,98568.77
2018-08-24T12:58:10.278Z,98560.37
2018-08-24T13:00:39.223Z,98552.72
2018-08-24T13:03:08.036Z,98555.44
2018-08-24T13:05:36.873Z,98556.12
2018-08-24T13:08:05.849Z,98555.97
2018-08-24T13:10:34.668Z,98559.72
2018-08-24T13:13:03.445Z,98552.70
2018-08-24T13:15:32.319Z,98548.62
2018-08-24T13:18:01.135Z,98547.18
2018-08-24T13:20:30.076Z,98549.54
2018-08-24T13:22:59.003Z,98541.05
2018-08-24T13:25:27.805Z,98538.30
2018-08-24T13:27:56.593Z,98532.88
2018-08-24T13:30:25.565Z,98540.22
2018-08-24T13:32:54.568Z,98533.27
2018-08-24T13:35:23.447Z,98528.91
2018-08-24T13:37:52.464Z,98527.69
2018-08-24T13:40:21.370Z,98528.82
2018-08-24T13:42:50.325Z,98525.16
2018-08-24T13:45:19.492Z,98522.73
2018-08-24T13:47:48.527Z,98525.52
2018-08-24T13:50:17.566Z,98518.02
2018-08-24T13:52:46.619Z,98517.38
2018-08-24T13:55:15.764Z,98512.21
2018-08-24T13:57:44.915Z,98510.20
2018-08-24T14:00:14.202Z,98510.28
2018-08-24T14:02:43.266Z,98515.82
2018-08-24T14:05:12.371Z,98504.25
2018-08-24T14:07:41.562Z,98503.59
2018-08-24T14:10:10.561Z,98494.56
2018-08-24T14:12:39.607Z,98485.47
2018-08-24T14:15:08.629Z,98493.91
2018-08-24T14:17:37.682Z,98485.84
2018-08-24T14:20:07.028Z,98491.08
2018-08-24T14:22:36.317Z,98486.91
2018-08-24T14:25:05.600Z,98481.40
2018-08-24T14:27:34.597Z,98484.48
2018-08-24T14:30:03.901Z,98480.64
2018-08-24T14:32:32.819Z,98481.26
2018-08-24T14:35:01.742Z,98475.23
2018-08-24T14:37:31.118Z,98478.34
2018-08-24T14:40:00.042Z,98478.36
2018-08-24T14:42:29.173Z,98478.23
2018-08-24T14:44:58.567Z,98474.84
2018-08-24T14:47:27.572Z,98479.84
2018-08-24T14:49:56.581Z,98472.58
2018-08-24T14:52:26.133Z,98477.58
2018-08-24T14:54:55.145Z,98472.22
2018-08-24T14:57:24.280Z,98477.37
2018-08-24T14:59:53.770Z,98465.67
2018-08-24T15:02:22.941Z,98464.84
2018-08-24T15:04:52.100Z,98462.34
2018-08-24T15:07:21.476Z,98464.41
2018-08-24T15:09:50.655Z,98465.65
2018-08-24T15:12:19.722Z,98466.22
2018-08-24T15:14:48.755Z,98464.36
2018-08-24T15:17:17.741Z,98459.91
2018-08-24T15:19:46.963Z,98461.31
2018-08-24T15:22:15.988Z,98461.63
2018-08-24T15:24:45.121Z,98462.04
2018-08-24T15:27:14.343Z,98465.62
2018-08-24T15:29:43.852Z,98461.06
2018-08-24T15:32:12.858Z,98459.63
2018-08-24T15:34:42.141Z,98467.27
2018-08-24T15:37:11.284Z,98459.53
2018-08-24T15:39:40.379Z,98462.22
2018-08-24T15:42:09.598Z,98453.41
2018-08-24T15:44:38.721Z,98448.76
2018-08-24T15:47:07.757Z,98454.78
2018-08-24T15:49:36.900Z,98451.11
2018-08-24T15:52:06.520Z,98448.91
2018-08-24T15:54:35.772Z,98447.69
2018-08-24T15:57:05.200Z,98449.16
2018-08-24T15:59:34.895Z,98450.62
2018-08-24T16:02:04.610Z,98448.97
2018-08-24T16:04:34.176Z,98455.70
2018-08-24T16:07:04.774Z,98452.28
2018-08-24T16:09:33.768Z,98448.35
2018-08-24T16:12:03.906Z,98454.80
2018-08-24T16:14:34.274Z,98455.27
2018-08-24T16:17:03.618Z,98454.20
2018-08-24T16:19:33.030Z,98461.13
2018-08-24T16:22:02.647Z,98459.58
2018-08-24T16:24:32.056Z,98453.80
2018-08-24T16:27:01.702Z,98462.39
2018-08-24T16:29:31.633Z,98456.91
2018-08-24T16:32:01.022Z,98460.84
2018-08-24T16:34:30.750Z,98457.16
2018-08-24T16:37:00.296Z,98459.45
2018-08-24T16:39:29.992Z,98456.66
2018-08-24T16:41:59.026Z,98453.16
2018-08-24T16:44:28.127Z,98458.88
2018-08-24T16:46:57.168Z,98457.14
2018-08-24T16:49:26.202Z,98466.28
2018-08-24T16:51:55.272Z,98469.69
2018-08-24T16:54:24.443Z,98461.22
2018-08-24T16:56:53.318Z,98461.79
2018-08-24T16:59:22.573Z,98464.48
2018-08-24T17:01:51.512Z,98464.41
2018-08-24T17:04:20.449Z,98461.84
2018-08-24T17:06:49.771Z,98459.63
2018-08-24T17:09:18.720Z,98460.02
2018-08-24T17:11:47.725Z,98453.80
2018-08-24T17:14:17.060Z,98459.91
2018-08-24T17:16:45.997Z,98457.69
2018-08-24T17:19:14.950Z,98459.08
2018-08-24T17:21:43.961Z,98456.41
2018-08-24T17:24:12.933Z,98447.00
2018-08-24T17:26:42.024Z,98454.88
2018-08-24T17:29:11.129Z,98459.12
2018-08-24T17:31:40.400Z,98458.53
2018-08-24T17:34:09.385Z,98459.70
2018-08-24T17:36:38.962Z,98465.69
2018-08-24T17:39:10.568Z,98467.42
2018-08-24T17:41:39.549Z,98462.97
2018-08-24T17:44:08.921Z,98465.53
2018-08-24T17:46:38.306Z,98468.04
2018-08-24T17:49:07.973Z,98477.66
2018-08-24T17:51:36.900Z,98477.73
2018-08-24T17:54:07.084Z,98478.66
2018-08-24T17:56:36.337Z,98485.66
2018-08-24T17:59:05.579Z,98483.76
2018-08-24T18:01:34.678Z,98484.19
2018-08-24T18:04:04.140Z,98488.64
2018-08-24T18:06:33.224Z,98492.58
2018-08-24T18:09:02.443Z,98497.69
2018-08-24T18:11:31.677Z,98498.19
2018-08-24T18:14:00.671Z,98500.72
2018-08-24T18:16:29.735Z,98505.06
2018-08-24T18:18:58.947Z,98513.98
2018-08-24T18:21:27.962Z,98512.91
2018-08-24T18:23:56.906Z,98518.59
2018-08-24T18:26:25.883Z,98521.65
2018-08-24T18:28:54.878Z,98523.18
2018-08-24T18:31:23.885Z,98533.33
2018-08-24T18:33:53.379Z,98537.91
2018-08-24T18:36:22.287Z,98537.03
2018-08-24T18:38:51.257Z,98543.14
2018-08-24T18:41:20.741Z,98539.99
2018-08-24T18:43:49.763Z,98540.05
2018-08-24T18:46:18.724Z,98538.33
2018-08-24T18:48:47.915Z,98541.55
2018-08-24T18:51:17.010Z,98539.85
2018-08-24T18:53:46.054Z,98538.75
2018-08-24T18:56:15.361Z,98543.41
2018-08-24T18:58:44.361Z,98546.22
2018-08-24T19:01:13.396Z,98554.15
2018-08-24T19:03:42.402Z,98551.35
2018-08-24T19:06:11.286Z,98561.83
2018-08-24T19:08:40.229Z,98563.56
2018-08-24T19:11:14.347Z,98562.83
2018-08-24T19:13:43.276Z,98564.00
2018-08-24T19:16:12.190Z,98563.72
2018-08-24T19:19:49.012Z,98572.41
2018-08-24T19:22:18.036Z,98570.17
2018-08-24T19:24:46.984Z,98570.70
2018-08-24T19:27:16.302Z,98556.77
2018-08-24T19:30:53.107Z,98565.69
2018-08-24T19:33:22.057Z,98562.28
2018-08-24T19:35:50.948Z,98560.87
2018-08-24T19:38:19.907Z,98556.98
2018-08-24T19:40:54.471Z,98556.89
2018-08-24T19:43:23.358Z,98546.36
2018-08-24T19:45:52.293Z,98551.80
2018-08-24T19:48:26.598Z,98555.73
2018-08-24T19:50:55.571Z,98564.47
2018-08-24T19:53:25.373Z,98559.62
2018-08-24T19:55:54.340Z,98565.28
2018-08-24T19:58:28.440Z,98567.28
2018-08-24T20:00:57.791Z,98567.75
2018-08-24T20:03:26.671Z,98569.25
2018-08-24T20:06:00.838Z,98568.72
2018-08-24T20:08:34.888Z,98574.84
2018-08-24T20:11:04.093Z,98578.46
2018-08-24T20:13:33.038Z,98577.87
2018-08-24T20:16:07.100Z,98590.34
2018-08-24T20:18:36.816Z,98588.73
2018-08-24T20:21:05.968Z,98591.52
2018-08-24T20:23:34.971Z,98587.13
2018-08-24T20:26:04.009Z,98592.11
2018-08-24T20:28:32.991Z,98590.23
2018-08-24T20:31:02.228Z,98587.38
2018-08-24T20:33:31.187Z,98584.61
2018-08-24T20:36:00.207Z,98585.06
2018-08-24T20:38:29.394Z,98589.44
2018-08-24T20:40:58.357Z,98593.14
2018-08-24T20:43:27.319Z,98594.45
2018-08-24T20:45:56.255Z,98591.66
2018-08-24T20:48:25.214Z,98594.73
2018-08-24T20:50:54.189Z,98603.73
2018-08-24T20:53:23.161Z,98601.00
2018-08-24T20:55:52.168Z,98602.17
2018-08-24T20:58:21.161Z,98599.23
2018-08-24T21:00:50.599Z,98607.83
2018-08-24T21:03:19.542Z,98598.42
2018-08-24T21:05:48.624Z,98605.25
2018-08-24T21:08:17.720Z,98611.22
2018-08-24T21:10:46.935Z,98600.77
2018-08-24T21:13:15.870Z,98605.18
2018-08-24T21:15:45.314Z,98602.33
2018-08-24T21:18:14.295Z,98611.10
2018-08-24T21:20:43.263Z,98606.48
2018-08-24T21:23:12.209Z,98605.09
2018-08-24T21:25:41.162Z,98608.34
2018-08-24T21:28:10.081Z,98614.72
2018-08-24T21:30:39.034Z,98610.09
2018-08-24T21:33:07.925Z,98610.98
2018-08-24T21:35:36.948Z,98612.75
2018-08-24T21:38:06.526Z,98616.56
2018-08-24T21:40:35.536Z,98616.38
2018-08-24T21:43:04.486Z,98606.80
2018-08-24T21:45:33.437Z,98605.44
2018-08-24T21:48:02.373Z,98610.36
2018-08-24T21:50:31.290Z,98607.09
2018-08-24T21:53:00.652Z,98608.15
2018-08-24T21:55:29.551Z,98600.77
2018-08-24T21:57:58.494Z,98610.17
2018-08-24T22:00:27.553Z,98606.87
2018-08-24T22:02:56.585Z,98611.55
2018-08-24T22:05:25.581Z,98611.84
2018-08-24T22:07:54.944Z,98615.66
2018-08-24T22:10:23.804Z,98617.58
2018-08-24T22:12:52.731Z,98612.87
2018-08-24T22:15:22.031Z,98615.60
2018-08-24T22:17:51.002Z,98616.72
2018-08-24T22:20:20.057Z,98622.53
2018-08-24T22:22:49.045Z,98621.72
2018-08-24T22:27:45.261Z,98618.96
2018-08-24T22:30:14.488Z,98620.31
2018-08-24T22:32:43.305Z,98614.77
2018-08-24T22:35:12.143Z,98611.70
2018-08-24T22:37:41.323Z,98615.52
2018-08-24T22:40:10.251Z,98617.14
2018-08-24T22:42:42.267Z,98621.26
2018-08-24T22:45:12.068Z,98617.62
2018-08-24T22:47:40.925Z,98619.30
2018-08-24T22:50:10.252Z,98618.77
2018-08-24T22:52:39.669Z,98602.91
2018-08-24T22:55:09.093Z,98608.47
2018-08-24T22:57:37.942Z,98607.45
2018-08-24T23:00:06.879Z,98614.88
2018-08-24T23:02:35.741Z,98610.75
2018-08-24T23:05:04.650Z,98611.59
2018-08-24T23:07:33.468Z,98612.14
2018-08-24T23:10:02.351Z,98606.11
2018-08-24T23:12:31.174Z,98606.36
2018-08-24T23:14:59.990Z,98613.48
2018-08-24T23:17:29.166Z,98607.98
2018-08-24T23:19:58.054Z,98608.01
2018-08-24T23:22:26.875Z,98603.36
2018-08-24T23:24:55.644Z,98606.91
2018-08-24T23:27:24.720Z,98605.27
2018-08-24T23:29:53.557Z,98603.34
2018-08-24T23:32:22.400Z,98605.83
2018-08-24T23:34:51.223Z,98602.53
2018-08-24T23:37:20.040Z,98601.98
2018-08-24T23:39:48.856Z,98603.35
2018-08-24T23:42:17.659Z,98607.48
2018-08-24T23:44:46.442Z,98608.86
